Time;durP1;ratioP1;P1;durP2;ratioP2;P2;SDS_P1;SDS_P2;PMS_P1;PMS_P2;Temp;Humidity;BMP_temperature;BMP_pressure;BME280_temperature;BME280_humidity;BME280_pressure;Samples;Min_cycle;Max_cycle;Signal;HPM_P1;HPM_P2
2022/01/23 00:01:10;;;;;;;2.75;2.00;;;21.70;63.90;;;;;;6218446;28;89272;-71
2022/01/23 00:04:12;;;;;;;3.72;1.95;;;21.70;64.00;;;;;;6222241;28;88931;-72
2022/01/23 00:07:16;;;;;;;3.00;2.25;;;21.70;63.90;;;;;;6226630;28;89138;-72
2022/01/23 00:10:19;;;;;;;3.25;1.70;;;21.70;64.00;;;;;;6220119;28;89087;-73
2022/01/23 00:13:28;;;;;;;3.63;1.90;;;21.70;64.00;;;;;;6217247;28;87032;-73
2022/01/23 00:19:51;;;;;;;3.40;1.88;;;21.70;64.00;;;;;;6215127;28;87327;-72
2022/01/23 00:22:58;;;;;;;6.25;1.98;;;21.70;63.80;;;;;;6216993;28;90275;-72
2022/01/23 00:32:39;;;;;;;2.08;1.70;;;21.60;63.70;;;;;;6214496;28;87559;-72
2022/01/23 00:35:44;;;;;;;5.10;2.10;;;21.60;63.70;;;;;;6207062;28;89097;-72
2022/01/23 00:38:47;;;;;;;5.22;2.10;;;21.60;63.60;;;;;;6210236;28;89306;-72
2022/01/23 00:41:49;;;;;;;2.92;1.80;;;21.60;63.60;;;;;;6210052;28;89059;-72
2022/01/23 00:44:58;;;;;;;2.15;1.70;;;21.60;63.60;;;;;;6211520;28;88304;-73
2022/01/23 00:48:04;;;;;;;3.30;1.80;;;21.60;63.50;;;;;;6211535;28;88762;-72
2022/01/23 00:51:06;;;;;;;2.70;1.90;;;21.60;63.60;;;;;;6207971;28;89465;-72
2022/01/23 00:54:12;;;;;;;3.53;2.00;;;21.60;63.70;;;;;;6213156;28;90127;-72
2022/01/23 00:57:14;;;;;;;3.28;2.10;;;21.60;63.60;;;;;;6219998;28;87903;-72
2022/01/23 01:00:16;;;;;;;3.10;1.70;;;21.60;63.70;;;;;;6208975;28;87956;-71
2022/01/23 01:03:18;;;;;;;1.80;1.50;;;21.60;63.70;;;;;;6203956;28;89037;-72
2022/01/23 01:06:20;;;;;;;3.10;1.73;;;21.60;63.70;;;;;;6217653;28;89204;-73
2022/01/23 01:09:24;;;;;;;1.98;1.50;;;21.60;64.00;;;;;;6207494;28;88984;-72
2022/01/23 01:12:33;;;;;;;5.25;1.83;;;21.50;64.40;;;;;;6221732;28;89107;-72
2022/01/23 01:15:52;;;;;;;2.42;1.60;;;21.60;64.00;;;;;;6214801;28;88417;-71
2022/01/23 01:32:17;;;;;;;3.00;1.48;;;21.60;63.70;;;;;;6222224;28;87085;-72
2022/01/23 01:35:25;;;;;;;3.53;1.60;;;21.60;64.60;;;;;;6227251;28;89174;-71
2022/01/23 01:38:27;;;;;;;2.42;1.70;;;21.60;63.60;;;;;;6229467;28;87921;-72
2022/01/23 01:41:30;;;;;;;3.72;1.80;;;21.50;63.50;;;;;;6232983;28;89050;-71
2022/01/23 01:44:32;;;;;;;1.95;1.50;;;21.60;63.50;;;;;;6230620;28;89051;-71
2022/01/23 01:47:34;;;;;;;1.73;1.50;;;21.50;63.40;;;;;;6229581;28;87554;-71
2022/01/23 01:50:42;;;;;;;1.65;1.40;;;21.50;63.40;;;;;;6230570;28;89430;-72
2022/01/23 01:53:50;;;;;;;2.65;1.60;;;21.50;63.40;;;;;;6235593;28;89125;-72
2022/01/23 01:57:04;;;;;;;2.10;1.50;;;21.50;63.30;;;;;;6212276;28;88928;-72
2022/01/23 02:00:15;;;;;;;2.10;1.42;;;21.50;63.40;;;;;;6224760;28;89300;-72
2022/01/23 02:09:59;;;;;;;2.58;1.50;;;21.50;63.30;;;;;;6223578;28;87134;-72
2022/01/23 02:13:11;;;;;;;1.95;1.67;;;21.50;63.20;;;;;;6232894;28;89098;-72
2022/01/23 02:16:37;;;;;;;2.17;1.50;;;21.40;63.20;;;;;;6234021;28;91157;-71
2022/01/23 02:23:23;;;;;;;1.42;1.23;;;21.50;63.20;;;;;;6223252;28;88916;-72
2022/01/23 02:56:50;;;;;;;1.40;1.27;;;21.40;63.00;;;;;;6259476;28;81334;-70
2022/01/23 02:59:52;;;;;;;1.67;1.30;;;21.40;63.00;;;;;;6236491;28;84493;-71
2022/01/23 03:03:01;;;;;;;1.60;1.50;;;21.40;63.00;;;;;;6225935;28;82338;-69
2022/01/23 03:06:19;;;;;;;1.50;1.33;;;21.40;63.00;;;;;;6223473;28;82668;-73
2022/01/23 03:24:02;;;;;;;1.45;1.35;;;21.40;62.90;;;;;;6225329;28;80730;-72
2022/01/23 03:26:49;;;;;;;2.10;1.45;;;21.40;62.80;;;;;;6233889;28;80502;-73
2022/01/23 03:29:56;;;;;;;2.35;1.10;;;21.40;62.90;;;;;;6236377;28;82178;-72
2022/01/23 03:32:58;;;;;;;1.40;1.30;;;21.40;63.00;;;;;;6231684;28;82436;-73
2022/01/23 03:36:00;;;;;;;1.77;1.38;;;21.30;62.90;;;;;;6239087;28;81708;-73
2022/01/23 03:39:02;;;;;;;1.83;1.40;;;21.30;62.90;;;;;;6207839;28;82285;-74
2022/01/23 03:42:05;;;;;;;1.63;1.27;;;21.30;62.90;;;;;;6218589;28;81333;-74
2022/01/23 03:45:29;;;;;;;2.28;1.67;;;21.30;62.90;;;;;;6229333;28;82265;-73
2022/01/23 03:52:04;;;;;;;1.90;1.80;;;21.30;62.90;;;;;;6165851;28;80426;-73
2022/01/23 03:55:08;;;;;;;2.15;1.90;;;21.30;62.90;;;;;;6230002;28;82342;-73
2022/01/23 03:58:10;;;;;;;1.70;1.60;;;21.30;62.90;;;;;;6229212;28;82328;-74
2022/01/23 04:01:13;;;;;;;2.15;1.95;;;21.30;62.90;;;;;;6226917;28;82443;-73
2022/01/23 04:04:27;;;;;;;3.83;2.30;;;21.30;62.90;;;;;;6233384;27;81157;-73
2022/01/23 04:07:31;;;;;;;2.65;2.22;;;21.30;62.90;;;;;;6216489;28;82510;-73
2022/01/23 04:10:33;;;;;;;2.08;1.88;;;21.30;62.80;;;;;;6189286;28;81930;-73
2022/01/23 04:13:44;;;;;;;2.75;2.35;;;21.30;62.90;;;;;;6200738;28;82407;-73
2022/01/23 04:20:32;;;;;;;2.65;2.45;;;21.30;62.90;;;;;;6193368;28;80947;-73
2022/01/23 04:33:55;;;;;;;3.30;3.00;;;21.30;62.90;;;;;;6214523;28;80937;-73
2022/01/23 05:00:13;;;;;;;4.13;3.63;;;21.30;63.00;;;;;;6212710;28;80685;-73
2022/01/23 05:06:43;;;;;;;4.13;3.47;;;21.30;63.00;;;;;;6221056;28;80600;-72
2022/01/23 05:09:46;;;;;;;3.92;3.47;;;21.30;62.90;;;;;;6215189;28;82369;-73
2022/01/23 05:12:48;;;;;;;4.10;3.70;;;21.40;63.00;;;;;;6201818;28;81231;-73
2022/01/23 05:15:50;;;;;;;4.25;3.85;;;21.40;63.00;;;;;;6227110;28;82282;-71
2022/01/23 05:18:53;;;;;;;4.10;3.70;;;21.40;63.00;;;;;;6206379;28;82574;-73
2022/01/23 05:25:18;;;;;;;4.88;3.63;;;21.40;62.80;;;;;;6187713;28;81347;-74
2022/01/23 05:28:20;;;;;;;4.47;4.07;;;21.50;62.80;;;;;;6212429;28;82568;-72
2022/01/23 05:31:22;;;;;;;4.45;3.90;;;21.50;62.90;;;;;;6203231;28;82391;-72
2022/01/23 05:34:25;;;;;;;4.80;3.67;;;21.50;62.90;;;;;;6220784;28;80324;-72
2022/01/23 05:37:28;;;;;;;4.32;3.92;;;21.50;62.90;;;;;;6218418;28;82279;-73
2022/01/23 05:40:30;;;;;;;4.20;3.75;;;21.50;62.90;;;;;;6218931;28;82329;-72
2022/01/23 05:43:32;;;;;;;4.63;4.22;;;21.50;62.90;;;;;;6211930;28;82249;-71
2022/01/23 05:46:34;;;;;;;4.55;4.15;;;21.50;62.90;;;;;;6207934;28;81221;-72
2022/01/23 05:49:37;;;;;;;4.70;4.00;;;21.50;62.90;;;;;;6200117;28;83461;-72
2022/01/23 05:52:40;;;;;;;4.38;3.97;;;21.50;63.00;;;;;;6201712;28;82395;-73
2022/01/23 05:55:42;;;;;;;4.60;4.20;;;21.50;62.90;;;;;;6188223;28;82308;-72
2022/01/23 05:58:44;;;;;;;4.82;4.15;;;21.50;63.00;;;;;;6209839;28;82344;-72
2022/01/23 06:01:47;;;;;;;4.63;4.07;;;21.50;63.00;;;;;;6225515;28;82423;-72
2022/01/23 06:04:49;;;;;;;4.63;4.22;;;21.50;62.90;;;;;;6212926;28;82167;-72
2022/01/23 06:07:52;;;;;;;4.72;4.32;;;21.50;62.90;;;;;;6206822;28;82263;-72
2022/01/23 06:10:56;;;;;;;4.53;4.13;;;21.50;62.90;;;;;;6199762;28;82259;-72
2022/01/23 06:13:58;;;;;;;5.13;4.15;;;21.50;62.90;;;;;;6199257;28;82459;-72
2022/01/23 06:17:00;;;;;;;5.10;4.60;;;21.60;62.90;;;;;;6201592;28;82281;-71
2022/01/23 06:20:03;;;;;;;5.63;4.97;;;21.50;62.80;;;;;;6199115;28;82340;-73
2022/01/23 06:23:06;;;;;;;4.70;4.22;;;21.60;62.80;;;;;;6212459;28;82343;-72
2022/01/23 06:26:08;;;;;;;4.65;4.25;;;21.60;62.80;;;;;;6210476;28;82549;-73
2022/01/23 06:29:11;;;;;;;4.80;4.35;;;21.60;62.80;;;;;;6208539;28;82447;-70
2022/01/23 06:32:14;;;;;;;4.40;4.00;;;21.60;62.70;;;;;;6186565;28;82397;-73
2022/01/23 06:35:16;;;;;;;4.80;4.30;;;21.70;62.70;;;;;;6199364;28;82291;-72
2022/01/23 06:38:19;;;;;;;4.93;4.43;;;21.70;62.50;;;;;;6197297;28;82427;-73
2022/01/23 06:41:21;;;;;;;4.93;4.43;;;21.70;62.50;;;;;;6186305;28;82247;-72
2022/01/23 06:44:23;;;;;;;5.03;4.50;;;21.70;62.50;;;;;;6201799;28;82267;-72
2022/01/23 06:47:25;;;;;;;5.25;4.43;;;21.70;62.40;;;;;;6217371;28;81155;-73
2022/01/23 06:50:27;;;;;;;4.93;4.43;;;21.80;62.50;;;;;;6213973;28;82301;-73
2022/01/23 06:53:31;;;;;;;5.20;4.70;;;21.80;62.30;;;;;;6196602;28;82318;-72
2022/01/23 06:56:33;;;;;;;4.88;4.22;;;21.80;62.30;;;;;;6205996;28;82447;-72
2022/01/23 06:59:35;;;;;;;4.55;4.15;;;21.90;62.30;;;;;;6190512;28;82307;-72
2022/01/23 07:02:37;;;;;;;4.72;4.22;;;21.90;62.20;;;;;;6194525;28;82307;-72
2022/01/23 07:05:39;;;;;;;4.93;4.20;;;21.90;62.20;;;;;;6186899;28;81373;-73
2022/01/23 07:08:42;;;;;;;4.97;4.40;;;21.90;62.10;;;;;;6197857;28;82300;-72
2022/01/23 07:11:45;;;;;;;4.45;4.05;;;21.90;62.20;;;;;;6186711;28;81497;-72
2022/01/23 07:14:47;;;;;;;4.90;4.40;;;21.90;62.00;;;;;;6187982;28;82387;-73
2022/01/23 07:17:49;;;;;;;4.32;3.90;;;22.00;62.10;;;;;;6204329;28;82384;-72
2022/01/23 07:20:51;;;;;;;4.30;3.90;;;22.00;62.00;;;;;;6199374;28;82427;-72
2022/01/23 07:23:55;;;;;;;7.68;4.20;;;22.00;62.10;;;;;;6199077;28;81416;-72
2022/01/23 07:26:59;;;;;;;4.40;4.00;;;22.00;62.00;;;;;;6200063;28;82435;-72
2022/01/23 07:30:01;;;;;;;4.30;3.90;;;22.00;62.00;;;;;;6207523;28;82238;-73
2022/01/23 07:33:03;;;;;;;4.80;4.40;;;22.00;62.00;;;;;;6205668;28;82376;-74
2022/01/23 07:36:05;;;;;;;4.38;3.97;;;22.10;62.00;;;;;;6200254;28;82572;-73
2022/01/23 07:39:09;;;;;;;4.60;4.20;;;22.10;62.00;;;;;;6210734;28;82413;-72
2022/01/23 07:42:11;;;;;;;4.50;4.10;;;22.10;62.00;;;;;;6209048;28;81113;-73
2022/01/23 07:45:13;;;;;;;3.95;3.58;;;22.10;62.00;;;;;;6211311;28;82302;-72
2022/01/23 07:48:15;;;;;;;4.75;4.25;;;22.10;62.00;;;;;;6209426;28;82408;-72
2022/01/23 07:51:17;;;;;;;4.43;4.03;;;22.10;62.00;;;;;;6207634;28;82537;-74
2022/01/23 07:54:22;;;;;;;4.22;3.83;;;22.20;62.00;;;;;;6213367;28;82366;-72
2022/01/23 07:57:24;;;;;;;4.30;3.90;;;22.20;62.00;;;;;;6208347;28;82089;-71
2022/01/23 08:00:26;;;;;;;4.50;4.10;;;22.20;62.00;;;;;;6205777;28;82287;-72
2022/01/23 08:03:28;;;;;;;4.63;3.95;;;22.20;62.00;;;;;;6195365;28;82318;-73
2022/01/23 08:06:33;;;;;;;4.32;3.92;;;22.20;62.10;;;;;;6207510;28;82499;-74
2022/01/23 08:09:36;;;;;;;4.50;4.10;;;22.30;62.20;;;;;;6200347;28;84081;-71
2022/01/23 08:12:39;;;;;;;4.85;4.15;;;22.30;62.20;;;;;;6199150;28;83221;-73
2022/01/23 08:15:41;;;;;;;4.32;3.92;;;22.20;62.20;;;;;;6203595;28;83283;-72
2022/01/23 08:18:43;;;;;;;4.10;3.75;;;22.30;62.20;;;;;;6220050;28;84304;-73
2022/01/23 08:21:45;;;;;;;4.07;3.67;;;22.30;62.30;;;;;;6207075;28;84904;-75
2022/01/23 08:24:49;;;;;;;4.05;3.72;;;22.30;62.40;;;;;;6200549;28;84123;-75
2022/01/23 08:27:52;;;;;;;4.32;3.92;;;22.40;62.60;;;;;;6204211;28;84317;-70
2022/01/23 08:30:54;;;;;;;4.40;4.00;;;22.40;62.70;;;;;;6196777;28;85126;-71
2022/01/23 08:33:56;;;;;;;4.28;3.80;;;22.40;62.50;;;;;;6209154;28;84083;-70
2022/01/23 08:36:58;;;;;;;3.95;3.65;;;22.40;62.30;;;;;;6209834;28;84453;-70
2022/01/23 08:40:01;;;;;;;4.38;3.97;;;22.40;62.20;;;;;;6202356;28;84063;-71
2022/01/23 08:43:03;;;;;;;4.35;3.95;;;22.40;62.10;;;;;;6207996;28;83238;-71
2022/01/23 08:46:06;;;;;;;4.57;3.80;;;22.40;62.00;;;;;;6208772;28;84007;-71
2022/01/23 08:49:08;;;;;;;4.05;3.75;;;22.40;62.00;;;;;;6205322;28;84182;-71
2022/01/23 08:52:10;;;;;;;4.15;3.75;;;22.50;62.10;;;;;;6198439;28;84996;-72
2022/01/23 08:55:14;;;;;;;3.80;3.50;;;22.40;62.00;;;;;;6203666;28;84399;-71
2022/01/23 08:58:16;;;;;;;4.25;3.80;;;22.40;62.00;;;;;;6197439;28;83998;-69
2022/01/23 09:01:18;;;;;;;4.30;3.90;;;22.50;62.10;;;;;;6210617;28;82927;-74
2022/01/23 09:04:20;;;;;;;5.55;3.83;;;22.50;62.00;;;;;;6202340;28;84461;-71
2022/01/23 09:07:23;;;;;;;4.28;3.88;;;22.50;61.80;;;;;;6217501;28;84453;-71
2022/01/23 09:10:28;;;;;;;5.47;3.50;;;22.40;61.90;;;;;;6209521;28;84730;-71
2022/01/23 09:13:39;;;;;;;4.63;3.30;;;22.50;62.00;;;;;;6203705;28;82304;-71
2022/01/23 09:16:43;;;;;;;6.15;3.60;;;22.50;62.10;;;;;;6205112;28;83896;-72
2022/01/23 09:19:47;;;;;;;4.00;3.65;;;22.50;62.10;;;;;;6197374;28;82926;-71
2022/01/23 09:22:49;;;;;;;4.90;3.33;;;22.50;62.00;;;;;;6200465;28;83842;-70
2022/01/23 09:25:56;;;;;;;4.65;3.50;;;22.50;62.10;;;;;;6202913;28;82650;-71
2022/01/23 09:29:00;;;;;;;4.78;3.50;;;22.50;62.10;;;;;;6211259;28;84331;-72
2022/01/23 09:32:05;;;;;;;3.60;3.30;;;22.50;62.20;;;;;;6198436;28;83975;-70
2022/01/23 09:35:07;;;;;;;3.47;3.17;;;22.60;62.60;;;;;;6209914;28;84041;-71
2022/01/23 09:38:09;;;;;;;4.25;3.40;;;22.60;62.70;;;;;;6207754;28;84057;-71
2022/01/23 09:41:17;;;;;;;5.93;3.70;;;22.60;63.00;;;;;;6213971;28;84041;-68
2022/01/23 09:44:21;;;;;;;4.63;4.00;;;22.60;63.00;;;;;;6206239;28;83218;-68
2022/01/23 09:47:23;;;;;;;198.70;97.32;;;22.60;63.20;;;;;;6211804;28;83888;-69
2022/01/23 09:50:25;;;;;;;859.20;504.92;;;22.60;67.30;;;;;;6208302;28;84059;-70
2022/01/23 09:53:28;;;;;;;357.48;231.88;;;22.70;74.10;;;;;;6208733;28;85326;-70
2022/01/23 09:56:34;;;;;;;215.38;118.97;;;22.70;71.80;;;;;;6208642;28;85327;-70
2022/01/23 09:59:36;;;;;;;95.85;59.63;;;22.70;72.80;;;;;;6209569;28;85250;-70
2022/01/23 10:02:38;;;;;;;79.50;46.63;;;22.80;66.60;;;;;;6203027;28;83970;-71
2022/01/23 10:05:41;;;;;;;65.10;38.55;;;22.80;65.20;;;;;;6202362;28;82956;-69
2022/01/23 10:08:44;;;;;;;53.38;32.70;;;22.80;63.50;;;;;;6205362;28;83940;-71
2022/01/23 10:11:50;;;;;;;42.65;24.88;;;22.70;63.00;;;;;;6208801;28;84049;-69
2022/01/23 10:14:52;;;;;;;34.97;21.75;;;22.70;63.30;;;;;;6204181;28;82834;-68
2022/01/23 10:17:54;;;;;;;34.10;20.67;;;22.70;63.30;;;;;;6194171;28;84053;-71
2022/01/23 10:20:56;;;;;;;31.33;19.38;;;22.60;66.70;;;;;;6189182;28;84261;-71
2022/01/23 10:23:59;;;;;;;30.67;18.88;;;22.60;63.80;;;;;;6203779;28;85527;-71
2022/01/23 10:27:03;;;;;;;36.53;19.00;;;22.60;63.30;;;;;;6188974;28;82905;-70
2022/01/23 10:30:18;;;;;;;29.70;17.42;;;22.60;63.00;;;;;;6199599;28;83813;-71
2022/01/23 10:33:22;;;;;;;26.95;16.83;;;22.70;62.80;;;;;;6185202;28;83863;-70
2022/01/23 10:36:24;;;;;;;25.25;16.02;;;22.70;62.70;;;;;;6208219;28;83174;-71
2022/01/23 10:39:40;;;;;;;23.58;14.48;;;22.70;62.70;;;;;;6207925;28;82923;-71
2022/01/23 10:50:05;;;;;;;22.60;14.38;;;22.80;62.70;;;;;;6184264;28;84107;-71
2022/01/23 10:53:07;;;;;;;22.52;12.95;;;22.80;62.70;;;;;;6191249;28;84678;-72
2022/01/23 10:56:10;;;;;;;24.65;13.45;;;22.80;62.70;;;;;;6193443;28;83966;-71
2022/01/23 10:59:14;;;;;;;23.23;12.77;;;22.80;62.70;;;;;;6189690;28;84008;-71
2022/01/23 11:02:21;;;;;;;20.95;12.45;;;22.80;62.60;;;;;;6196174;28;84121;-71
2022/01/23 11:05:32;;;;;;;21.33;11.15;;;22.80;62.50;;;;;;6195486;28;84530;-73
2022/01/23 11:08:34;;;;;;;20.45;11.27;;;22.80;62.50;;;;;;6204977;28;84056;-73
2022/01/23 11:11:45;;;;;;;21.17;10.95;;;22.90;62.70;;;;;;6196024;28;84084;-70
2022/01/23 11:18:18;;;;;;;22.70;11.00;;;22.90;63.20;;;;;;6221588;28;82597;-68
2022/01/23 11:21:22;;;;;;;18.33;10.52;;;22.90;63.50;;;;;;6206762;28;82751;-70
2022/01/23 11:24:35;;;;;;;16.20;9.25;;;22.90;63.70;;;;;;6208522;28;84101;-72
2022/01/23 11:27:39;;;;;;;15.73;9.35;;;22.90;63.70;;;;;;6206536;28;84995;-69
2022/01/23 11:30:45;;;;;;;12.25;8.50;;;22.90;63.50;;;;;;6214510;28;84005;-70
2022/01/23 11:33:47;;;;;;;14.02;8.15;;;22.80;62.80;;;;;;6206315;28;84034;-71
2022/01/23 11:36:51;;;;;;;12.32;7.53;;;22.80;62.30;;;;;;6212613;28;84098;-70
2022/01/23 11:39:58;;;;;;;14.90;7.32;;;22.90;62.70;;;;;;6217394;28;84031;-70
2022/01/23 11:56:46;;;;;;;10.73;6.50;;;22.90;73.80;;;;;;6213641;28;82253;-68
2022/01/23 11:59:49;;;;;;;13.68;7.07;;;22.80;68.60;;;;;;6201035;28;83966;-71
2022/01/23 12:03:12;;;;;;;18.55;6.43;;;22.90;66.20;;;;;;6205394;28;83117;-72
2022/01/23 12:06:15;;;;;;;11.27;6.53;;;22.90;65.80;;;;;;6202120;28;82996;-72
2022/01/23 12:09:19;;;;;;;12.88;6.57;;;23.00;65.70;;;;;;6209377;28;83786;-71
2022/01/23 12:12:33;;;;;;;8.80;5.55;;;22.90;65.20;;;;;;6212353;28;83988;-71
2022/01/23 12:19:18;;;;;;;11.68;5.53;;;22.90;65.80;;;;;;6212977;28;81842;-72
2022/01/23 12:22:30;;;;;;;9.80;5.55;;;22.90;64.90;;;;;;6199455;28;83275;-69
2022/01/23 12:25:42;;;;;;;8.52;5.30;;;22.90;64.80;;;;;;6203313;28;84114;-70
2022/01/23 12:28:45;;;;;;;9.68;5.63;;;22.90;64.50;;;;;;6193954;28;84082;-70
2022/01/23 12:31:47;;;;;;;12.35;5.82;;;22.90;64.70;;;;;;6192650;28;85062;-73
2022/01/23 12:34:52;;;;;;;10.13;5.53;;;22.90;64.60;;;;;;6203519;28;84123;-70
2022/01/23 12:38:09;;;;;;;10.15;5.70;;;22.90;64.50;;;;;;6197941;28;84053;-72
2022/01/23 12:41:35;;;;;;;9.55;5.40;;;22.90;64.20;;;;;;6211359;28;84443;-72
2022/01/23 12:44:39;;;;;;;9.00;5.07;;;22.90;64.30;;;;;;6202331;27;83978;-72
2022/01/23 12:47:41;;;;;;;8.60;5.00;;;22.90;64.20;;;;;;6212687;28;84121;-71
2022/01/23 12:50:48;;;;;;;9.10;5.00;;;22.90;64.00;;;;;;6211561;28;84063;-70
2022/01/23 12:54:11;;;;;;;8.13;4.85;;;22.90;64.00;;;;;;6206498;28;83602;-73
2022/01/23 12:57:16;;;;;;;9.07;5.25;;;22.90;64.00;;;;;;6199374;28;84037;-70
2022/01/23 13:00:25;;;;;;;7.97;4.90;;;22.90;64.00;;;;;;6194705;28;84033;-68
2022/01/23 13:03:27;;;;;;;7.57;5.13;;;22.90;64.00;;;;;;6210863;28;84884;-70
2022/01/23 13:06:33;;;;;;;7.07;5.35;;;22.80;63.40;;;;;;6204109;28;84581;-70
2022/01/23 13:09:41;;;;;;;6.30;5.35;;;22.90;62.10;;;;;;6204902;28;82911;-70
2022/01/23 13:12:54;;;;;;;7.03;5.07;;;22.90;61.10;;;;;;6198374;28;84165;-70
2022/01/23 13:16:19;;;;;;;6.05;5.25;;;22.90;60.50;;;;;;6205342;28;83944;-69
2022/01/23 13:19:45;;;;;;;6.20;5.25;;;22.80;60.30;;;;;;6186855;28;82920;-70
2022/01/23 13:32:52;;;;;;;5.60;4.75;;;22.80;59.60;;;;;;6205113;28;82026;-70
2022/01/23 13:35:54;;;;;;;5.30;4.50;;;22.80;59.80;;;;;;6193431;28;85372;-69
2022/01/23 13:38:57;;;;;;;5.10;4.40;;;22.80;59.50;;;;;;6202301;28;84008;-71
2022/01/23 13:42:23;;;;;;;5.03;4.55;;;22.80;59.10;;;;;;6211809;28;84297;-70
2022/01/23 13:52:35;;;;;;;7.13;4.30;;;22.70;59.50;;;;;;6210535;28;82308;-69
2022/01/23 13:59:07;;;;;;;4.38;3.97;;;22.70;59.50;;;;;;6193031;28;81530;-69
2022/01/23 14:02:18;;;;;;;4.38;3.97;;;22.70;59.00;;;;;;6211638;28;84063;-69
2022/01/23 14:05:22;;;;;;;3.50;3.20;;;22.70;59.10;;;;;;6204019;28;84086;-69
2022/01/23 14:08:24;;;;;;;5.03;3.70;;;22.60;59.90;;;;;;6184995;28;85007;-69
2022/01/23 14:11:28;;;;;;;3.63;3.17;;;22.70;60.30;;;;;;6214619;28;84003;-69
2022/01/23 14:14:30;;;;;;;5.05;3.22;;;22.70;60.40;;;;;;6200842;28;84675;-68
2022/01/23 14:17:36;;;;;;;4.40;3.30;;;22.70;60.80;;;;;;6198028;28;84501;-69
2022/01/23 14:20:40;;;;;;;4.75;3.05;;;22.70;61.00;;;;;;6207210;28;83906;-69
2022/01/23 14:23:52;;;;;;;4.35;2.85;;;22.70;61.10;;;;;;6209198;28;84425;-70
2022/01/23 14:27:06;;;;;;;4.90;3.28;;;22.60;61.50;;;;;;6186822;28;84045;-68
2022/01/23 14:30:13;;;;;;;5.70;3.00;;;22.60;61.50;;;;;;6198754;28;83297;-70
2022/01/23 14:33:17;;;;;;;5.95;3.08;;;22.70;61.60;;;;;;6211000;28;84327;-69
2022/01/23 14:36:22;;;;;;;3.90;2.80;;;22.70;61.60;;;;;;6197654;28;84046;-69
2022/01/23 14:39:24;;;;;;;4.10;2.72;;;22.70;61.70;;;;;;6192920;28;84989;-69
2022/01/23 14:42:28;;;;;;;5.05;3.25;;;22.60;61.80;;;;;;6208084;28;83074;-69
2022/01/23 14:45:33;;;;;;;4.90;3.00;;;22.60;61.90;;;;;;6197076;28;85301;-69
2022/01/23 14:48:39;;;;;;;5.85;3.30;;;22.70;62.10;;;;;;6179904;28;83032;-69
2022/01/23 14:51:41;;;;;;;5.63;3.25;;;22.70;62.20;;;;;;6209712;28;83996;-69
2022/01/23 14:54:44;;;;;;;5.13;3.15;;;22.70;62.30;;;;;;6193854;28;84356;-68
2022/01/23 14:57:48;;;;;;;5.78;3.13;;;22.70;62.30;;;;;;6217012;28;82881;-68
2022/01/23 15:00:52;;;;;;;5.50;3.38;;;22.70;62.30;;;;;;6214765;28;83693;-69
2022/01/23 15:03:55;;;;;;;6.32;3.42;;;22.70;62.30;;;;;;6209116;28;84047;-69
2022/01/23 15:07:00;;;;;;;6.10;3.30;;;22.70;62.30;;;;;;6206207;28;83927;-68
2022/01/23 15:10:04;;;;;;;7.47;3.42;;;22.70;62.50;;;;;;6221251;28;85475;-69
2022/01/23 15:13:07;;;;;;;13.57;5.25;;;22.60;62.50;;;;;;6195599;28;83994;-66
2022/01/23 15:16:10;;;;;;;10.45;4.80;;;22.70;63.30;;;;;;6206961;28;84285;-66
2022/01/23 15:19:13;;;;;;;8.65;4.07;;;22.70;63.70;;;;;;6207290;28;84239;-66
2022/01/23 15:22:15;;;;;;;8.23;4.28;;;22.70;63.00;;;;;;6197453;28;82925;-65
2022/01/23 15:25:18;;;;;;;8.70;4.10;;;22.70;63.10;;;;;;6191495;28;84073;-65
2022/01/23 15:28:22;;;;;;;10.50;4.38;;;22.70;63.00;;;;;;6193826;28;82951;-65
2022/01/23 15:31:25;;;;;;;9.27;4.13;;;22.70;63.50;;;;;;6183968;28;83319;-66
2022/01/23 15:34:28;;;;;;;8.10;4.05;;;22.70;63.50;;;;;;6200276;28;82949;-66
2022/01/23 15:37:30;;;;;;;7.50;3.83;;;22.70;63.70;;;;;;6200982;28;83118;-66
2022/01/23 15:40:32;;;;;;;9.60;4.10;;;22.70;63.60;;;;;;6202323;28;83933;-66
2022/01/23 15:43:35;;;;;;;7.28;3.92;;;22.70;63.60;;;;;;6184581;28;84050;-66
2022/01/23 15:46:38;;;;;;;7.40;3.88;;;22.70;63.70;;;;;;6213414;28;82931;-67
2022/01/23 15:49:40;;;;;;;11.73;4.43;;;22.70;63.70;;;;;;6203043;28;84288;-66
2022/01/23 15:52:43;;;;;;;6.70;4.00;;;22.70;63.70;;;;;;6196912;28;83369;-67
2022/01/23 15:55:45;;;;;;;8.38;3.95;;;22.70;63.70;;;;;;6186187;28;84046;-67
2022/01/23 15:58:48;;;;;;;7.50;4.00;;;22.70;63.70;;;;;;6190224;28;84050;-67
2022/01/23 16:01:51;;;;;;;8.65;3.92;;;22.70;63.70;;;;;;6203408;28;83275;-67
2022/01/23 16:04:53;;;;;;;6.53;3.42;;;22.70;63.70;;;;;;6221750;28;84312;-67
2022/01/23 16:07:55;;;;;;;6.45;3.55;;;22.70;63.70;;;;;;6191830;28;83972;-66
2022/01/23 16:14:20;;;;;;;9.13;3.70;;;22.60;63.90;;;;;;6204689;28;82294;-66
2022/01/23 16:17:22;;;;;;;6.47;4.00;;;22.60;63.60;;;;;;6207298;28;84089;-66
2022/01/23 16:20:24;;;;;;;7.57;3.78;;;22.60;63.60;;;;;;6205116;28;82933;-67
2022/01/23 16:23:26;;;;;;;6.70;3.70;;;22.60;63.80;;;;;;6198364;28;82988;-66
2022/01/23 16:26:28;;;;;;;6.65;3.42;;;22.50;63.70;;;;;;6212700;28;84086;-66
2022/01/23 16:29:31;;;;;;;5.50;3.38;;;22.50;63.80;;;;;;6211655;28;84069;-66
2022/01/23 16:32:33;;;;;;;8.27;4.05;;;22.50;63.70;;;;;;6214061;28;83380;-67
2022/01/23 16:35:36;;;;;;;9.63;3.83;;;22.40;63.80;;;;;;6209348;28;83971;-66
2022/01/23 16:38:38;;;;;;;5.78;3.40;;;22.40;63.80;;;;;;6201449;28;83979;-66
2022/01/23 16:41:40;;;;;;;6.88;3.70;;;22.40;63.80;;;;;;6211625;28;85204;-66
2022/01/23 16:44:44;;;;;;;6.40;3.53;;;22.40;63.80;;;;;;6211016;28;84148;-66
2022/01/23 16:47:47;;;;;;;7.18;3.70;;;22.40;63.80;;;;;;6202653;28;84012;-66
2022/01/23 16:50:50;;;;;;;5.57;3.20;;;22.40;63.80;;;;;;6210920;28;82985;-66
2022/01/23 16:53:52;;;;;;;5.22;3.45;;;22.40;63.70;;;;;;6211547;28;84016;-66
2022/01/23 16:56:55;;;;;;;5.88;3.78;;;22.40;63.70;;;;;;6203668;28;84102;-66
2022/01/23 16:59:58;;;;;;;6.18;3.30;;;22.40;63.70;;;;;;6219890;28;83999;-66
2022/01/23 17:03:00;;;;;;;6.53;3.65;;;22.40;63.60;;;;;;6200633;28;83269;-66
2022/01/23 17:06:02;;;;;;;6.28;3.85;;;22.40;63.60;;;;;;6199310;28;82925;-66
2022/01/23 17:09:04;;;;;;;5.05;3.50;;;22.40;63.70;;;;;;6211666;28;82078;-66
2022/01/23 17:12:07;;;;;;;6.38;3.90;;;22.30;64.50;;;;;;6196550;28;84981;-66
2022/01/23 17:15:11;;;;;;;5.18;3.58;;;22.40;63.60;;;;;;6192318;28;84375;-66
2022/01/23 17:18:14;;;;;;;6.07;3.83;;;22.30;63.50;;;;;;6213434;28;84067;-66
2022/01/23 17:21:16;;;;;;;6.03;3.95;;;22.40;63.50;;;;;;6198569;28;84073;-65
2022/01/23 17:24:19;;;;;;;5.88;3.80;;;22.40;64.20;;;;;;6204270;28;84170;-68
2022/01/23 17:27:39;;;;;;;8.48;4.20;;;22.40;65.00;;;;;;6211249;28;82853;-68
2022/01/23 17:30:43;;;;;;;7.05;4.00;;;22.40;64.40;;;;;;6183561;28;83984;-68
2022/01/23 17:33:45;;;;;;;6.07;3.88;;;22.40;64.60;;;;;;6213602;28;83391;-68
2022/01/23 17:36:47;;;;;;;5.80;3.55;;;22.50;64.60;;;;;;6208581;28;84067;-68
2022/01/23 17:39:50;;;;;;;6.40;3.80;;;22.50;64.70;;;;;;6208315;28;84046;-68
2022/01/23 17:42:52;;;;;;;7.85;3.97;;;22.50;64.80;;;;;;6206077;28;83931;-68
2022/01/23 17:45:55;;;;;;;9.13;4.05;;;22.50;64.80;;;;;;6208163;28;84095;-67
2022/01/23 17:49:04;;;;;;;5.60;3.72;;;22.50;65.20;;;;;;6206782;28;84210;-67
2022/01/23 17:52:07;;;;;;;5.93;4.20;;;22.60;65.20;;;;;;6209875;28;83866;-67
2022/01/23 17:55:10;;;;;;;6.97;3.58;;;22.60;65.00;;;;;;6216332;28;84148;-66
2022/01/23 17:58:12;;;;;;;5.10;3.63;;;22.50;65.00;;;;;;6198937;28;84481;-67
2022/01/23 18:01:16;;;;;;;6.00;4.38;;;22.60;65.00;;;;;;6206976;28;83951;-68
2022/01/23 18:04:18;;;;;;;8.18;4.20;;;22.60;65.00;;;;;;6208825;28;83238;-68
2022/01/23 18:07:20;;;;;;;7.68;4.05;;;22.60;65.00;;;;;;6221073;28;83305;-68
2022/01/23 18:10:22;;;;;;;6.13;4.03;;;22.60;65.00;;;;;;6193987;28;83287;-67
2022/01/23 18:13:25;;;;;;;6.25;4.20;;;22.60;65.00;;;;;;6185464;28;85278;-67
2022/01/23 18:16:31;;;;;;;6.97;4.30;;;22.60;65.00;;;;;;6197836;28;82927;-67
2022/01/23 18:19:33;;;;;;;7.25;4.28;;;22.60;65.10;;;;;;6201013;28;84321;-67
2022/01/23 18:22:35;;;;;;;5.20;4.00;;;22.60;65.00;;;;;;6200444;28;84158;-68
2022/01/23 18:25:44;;;;;;;6.43;4.20;;;22.60;65.00;;;;;;6204640;28;83959;-68
2022/01/23 18:28:46;;;;;;;5.80;4.05;;;22.60;64.90;;;;;;6191043;28;84342;-67
2022/01/23 18:31:50;;;;;;;5.35;4.35;;;22.70;64.90;;;;;;6196047;28;84342;-68
2022/01/23 18:34:53;;;;;;;5.43;4.50;;;22.60;64.70;;;;;;6193761;28;83705;-67
2022/01/23 18:37:57;;;;;;;6.00;4.90;;;22.60;64.70;;;;;;6193185;28;82919;-68
2022/01/23 18:41:00;;;;;;;5.95;5.00;;;22.60;64.60;;;;;;6197247;28;84096;-67
2022/01/23 18:44:02;;;;;;;5.82;4.78;;;22.70;64.70;;;;;;6191670;28;85260;-68
2022/01/23 18:47:06;;;;;;;6.30;5.05;;;22.70;64.50;;;;;;6195580;28;84078;-68
2022/01/23 18:50:11;;;;;;;6.60;5.00;;;22.70;64.40;;;;;;6200934;28;84121;-68
2022/01/23 18:53:23;;;;;;;6.28;5.40;;;22.70;64.40;;;;;;6195986;28;84054;-68